Airfield :







YOU CAN JOIN US ON...

 
LOGIN :

Register | Disclaimer

   EN    FR    IT 

 









Legend :    VFR   Marginal VFR   IFR   Intensive IFR   Very Intensive IFR
Visi :
Ceiling :
>= 8 km
>= 3000ft
5 to 8 km
1000 to 3000 ft
1500m to 5 km
500 to 1000 ft
800 to 1500m
200 to 500 ft
< 800m
< 200 ft
Symbols :   Thunderstorms  Fog  Heavy snow  Heavy precipitations  Wind > 20 kt






- Airport Elevation : 792 ft
- IATA code : YSC


CYSC - Sherbrooke

CURRENT METAR :
  • 250713Z AUTO 06003KT 3SM -SN BKN012 M14/M16 A2977 RMK SLP104

EXPIRED METARs :
  • 250651Z AUTO 07003KT 1 3/4SM -SN OVC014 M14/M16 A2978 RMK SLP105
  • 250636Z AUTO 06004KT 2 1/2SM -SN OVC016 M14/M16 A2978 RMK VIS VRB 1 1/2-3 SLP105
  • 250629Z AUTO 07004KT 3SM -SN BKN016 M14/M16 A2978 RMK SLP105
  • 250616Z AUTO 06004KT 2 1/2SM -SN BKN016 BKN024 M14/M16 A2978 RMK SLP106
  • 250600Z AUTO 06003KT 030V110 4SM -SN BKN016 BKN024 M14/M16 A2978 RMK SLP108
  • 250558Z AUTO 07003KT 030V110 3SM -SN BKN016 M14/M16 A2978 RMK SLP108
  • 250515Z AUTO 06003KT 2SM -SN OVC014 M14/M17 A2981 RMK SLP115
  • 250502Z AUTO 07004KT 1 3/4SM -SN OVC014 M14/M17 A2981 RMK SLP117
  • 250430Z AUTO 06004KT 5SM -SN BKN020 M14/M19 A2983 RMK SLP124

Expired Forecast.
CZUL FIR / North America



MET'MAP, your aeronautical weather chart ! - Copyright ORBIFLY December 2007 - Disclaimer

ORBIFLY MET'MAP TEAM :

Programming & Development : Alexandra Zaïnal
Original concept : Baudouin d'Aumeries
Technical & hardware support : Manuel Goepfert
Assistance : Marc-Olivier Méhu

Contact : metmap@orbifly.com




SOURCES & CREDITS :

   NOAA